createdAt,value
2019-05-29T00:01:59.896Z,59.03
2019-05-29T00:04:50.354Z,56.06
2019-05-29T00:07:40.704Z,57.57
2019-05-29T00:10:30.943Z,57.23
2019-05-29T00:13:21.000Z,53.40
2019-05-29T00:16:12.376Z,53.34
2019-05-29T00:19:02.509Z,53.16
2019-05-29T00:21:52.739Z,54.72
2019-05-29T00:24:43.122Z,56.84
2019-05-29T00:27:33.340Z,56.46
2019-05-29T00:30:24.618Z,55.66
2019-05-29T00:33:14.868Z,54.63
2019-05-29T00:36:06.170Z,53.78
2019-05-29T00:38:56.614Z,53.08
2019-05-29T00:41:46.855Z,52.17
2019-05-29T00:44:37.102Z,51.73
2019-05-29T00:47:27.272Z,50.53
2019-05-29T00:50:17.463Z,51.07
2019-05-29T00:53:08.754Z,51.43
2019-05-29T00:55:58.986Z,50.69
2019-05-29T00:58:49.398Z,50.77
2019-05-29T01:01:39.400Z,52.00
2019-05-29T01:04:29.564Z,54.56
2019-05-29T01:07:20.532Z,57.85
2019-05-29T01:10:13.027Z,59.98
2019-05-29T01:13:03.494Z,60.14
2019-05-29T01:15:53.805Z,60.73
2019-05-29T01:18:44.072Z,61.47
2019-05-29T01:21:34.268Z,59.35
2019-05-29T01:24:24.199Z,58.49
2019-05-29T01:27:15.119Z,56.57
2019-05-29T01:30:05.921Z,55.72
2019-05-29T01:32:56.201Z,55.24
2019-05-29T01:35:46.402Z,54.67
2019-05-29T01:38:36.634Z,54.61
2019-05-29T01:41:28.023Z,55.43
2019-05-29T01:44:19.324Z,56.00
2019-05-29T01:47:09.466Z,55.95
2019-05-29T01:49:59.884Z,57.44
2019-05-29T01:52:50.060Z,56.26
2019-05-29T01:55:40.334Z,55.43
2019-05-29T01:58:30.250Z,55.31
2019-05-29T02:01:21.917Z,55.45
2019-05-29T02:04:12.204Z,55.72
2019-05-29T02:07:02.580Z,56.25
2019-05-29T02:09:52.578Z,56.61
2019-05-29T02:12:42.600Z,56.50
2019-05-29T02:15:34.134Z,57.02
2019-05-29T02:18:25.089Z,57.38
2019-05-29T02:21:15.916Z,57.17
2019-05-29T02:24:06.475Z,56.86
2019-05-29T02:26:56.664Z,57.85
2019-05-29T02:29:46.913Z,57.23
2019-05-29T02:32:37.219Z,57.35
2019-05-29T02:35:29.435Z,56.55
2019-05-29T02:38:20.509Z,55.40
2019-05-29T02:41:10.647Z,56.69
2019-05-29T02:44:00.619Z,56.18
2019-05-29T02:46:50.822Z,58.02
2019-05-29T02:49:41.060Z,59.04
2019-05-29T02:52:31.434Z,59.14
2019-05-29T02:55:22.550Z,57.57
2019-05-29T02:58:13.115Z,58.84
2019-05-29T03:01:03.330Z,58.81
2019-05-29T03:03:53.666Z,58.84
2019-05-29T03:06:43.867Z,61.43
2019-05-29T03:09:33.872Z,61.98
2019-05-29T03:12:25.008Z,62.90
2019-05-29T03:15:15.229Z,63.49
2019-05-29T03:18:05.508Z,63.21
2019-05-29T03:20:55.760Z,62.19
2019-05-29T03:23:46.265Z,61.77
2019-05-29T03:26:38.208Z,61.01
2019-05-29T03:29:30.018Z,60.45
2019-05-29T03:32:20.584Z,60.73
2019-05-29T03:35:10.805Z,60.80
2019-05-29T03:38:00.931Z,61.58
2019-05-29T03:40:51.188Z,63.40
2019-05-29T03:43:41.145Z,65.70
2019-05-29T03:46:41.300Z,66.48
2019-05-29T03:49:22.866Z,68.79
2019-05-29T03:52:13.112Z,73.22
2019-05-29T03:55:03.174Z,75.54
2019-05-29T03:57:53.562Z,73.64
2019-05-29T04:00:46.370Z,74.07
2019-05-29T04:03:37.672Z,75.47
2019-05-29T04:06:28.997Z,75.99
2019-05-29T04:09:19.227Z,75.91
2019-05-29T04:12:09.588Z,76.37
2019-05-29T04:14:59.834Z,76.49
2019-05-29T04:17:50.169Z,76.53
2019-05-29T04:20:41.001Z,74.51
2019-05-29T04:23:34.198Z,72.11
2019-05-29T04:26:25.760Z,68.87
2019-05-29T04:29:16.284Z,65.67
2019-05-29T04:32:07.121Z,61.25
2019-05-29T04:34:58.027Z,58.79
2019-05-29T04:37:48.782Z,55.94
2019-05-29T04:40:39.894Z,52.69
2019-05-29T04:43:31.294Z,49.23
2019-05-29T04:46:23.406Z,47.27
2019-05-29T04:49:14.155Z,44.69
2019-05-29T04:52:05.098Z,43.84
2019-05-29T04:54:55.994Z,42.82
2019-05-29T04:57:50.530Z,42.82
2019-05-29T05:00:39.511Z,42.40
2019-05-29T05:03:31.013Z,42.02
2019-05-29T05:06:22.124Z,41.34
2019-05-29T05:09:12.815Z,40.78
2019-05-29T05:12:03.398Z,39.71
2019-05-29T05:14:54.182Z,41.85
2019-05-29T05:17:44.747Z,40.45
2019-05-29T05:20:36.265Z,40.45
2019-05-29T05:23:27.260Z,40.45
2019-05-29T05:26:18.097Z,40.93
2019-05-29T05:29:08.572Z,41.25
2019-05-29T05:31:59.128Z,40.80
2019-05-29T05:34:49.969Z,40.31
2019-05-29T05:37:41.051Z,39.20
2019-05-29T05:40:33.011Z,38.93
2019-05-29T05:43:24.670Z,38.77
2019-05-29T05:46:16.260Z,38.39
2019-05-29T05:49:07.300Z,39.20
2019-05-29T05:51:57.872Z,38.24
2019-05-29T05:54:48.715Z,36.96
2019-05-29T05:57:39.774Z,36.35
2019-05-29T06:00:31.976Z,33.27
2019-05-29T06:03:22.309Z,32.60
2019-05-29T06:12:15.958Z,32.07
2019-05-29T06:15:07.433Z,32.28
2019-05-29T06:18:19.379Z,31.06
2019-05-29T06:20:50.216Z,30.42
2019-05-29T06:23:41.149Z,28.97
2019-05-29T06:26:32.704Z,28.40
2019-05-29T06:29:23.157Z,28.69
2019-05-29T06:32:13.554Z,27.86
2019-05-29T06:35:04.094Z,28.56
2019-05-29T06:37:54.605Z,28.43
2019-05-29T06:40:45.498Z,27.91
2019-05-29T06:43:35.997Z,27.69
2019-05-29T06:46:26.485Z,27.36
2019-05-29T06:49:16.739Z,28.83
2019-05-29T06:52:09.168Z,29.69
2019-05-29T06:54:59.604Z,28.10
2019-05-29T06:57:50.068Z,28.50
2019-05-29T07:00:41.145Z,27.70
2019-05-29T07:03:32.427Z,27.15
2019-05-29T07:06:23.007Z,26.88
2019-05-29T07:09:13.506Z,26.97
2019-05-29T07:12:04.072Z,25.38
2019-05-29T07:14:54.675Z,26.84
2019-05-29T07:17:45.217Z,25.89
2019-05-29T07:20:36.530Z,25.97
2019-05-29T07:23:27.125Z,26.80
2019-05-29T07:26:17.698Z,27.24
2019-05-29T07:29:08.811Z,25.40
2019-05-29T07:31:59.368Z,25.41
2019-05-29T07:35:02.772Z,25.39
2019-05-29T07:37:41.778Z,25.95
2019-05-29T07:40:35.757Z,25.86
2019-05-29T07:43:24.813Z,25.62
2019-05-29T07:46:15.527Z,25.27
2019-05-29T07:49:06.011Z,25.46
2019-05-29T07:51:56.506Z,25.14
2019-05-29T07:54:48.041Z,26.12
2019-05-29T07:57:38.956Z,26.77
2019-05-29T08:00:35.623Z,28.61
2019-05-29T08:03:21.375Z,30.14
2019-05-29T08:06:12.110Z,32.33
2019-05-29T08:09:02.914Z,32.83
2019-05-29T08:11:53.553Z,32.83
2019-05-29T08:14:45.721Z,33.47
2019-05-29T08:17:37.101Z,33.47
2019-05-29T08:20:27.907Z,33.53
2019-05-29T08:23:18.448Z,33.75
2019-05-29T08:26:09.323Z,32.82
2019-05-29T08:29:00.107Z,37.55
2019-05-29T08:31:51.026Z,37.33
2019-05-29T08:34:43.053Z,39.05
2019-05-29T08:37:34.086Z,39.43
2019-05-29T08:40:24.874Z,38.07
2019-05-29T08:43:15.833Z,39.23
2019-05-29T08:46:06.734Z,40.73
2019-05-29T08:48:57.734Z,41.15
2019-05-29T08:51:48.569Z,40.77
2019-05-29T08:54:43.987Z,37.05
2019-05-29T08:57:35.891Z,39.48
2019-05-29T09:00:26.788Z,38.64
2019-05-29T09:03:17.585Z,36.25
2019-05-29T09:06:09.212Z,37.08
2019-05-29T09:09:00.373Z,35.19
2019-05-29T09:11:51.856Z,35.35
2019-05-29T09:14:42.662Z,34.85
2019-05-29T09:17:34.547Z,32.19
2019-05-29T09:20:37.276Z,32.87
2019-05-29T09:23:18.863Z,33.28
2019-05-29T09:26:15.800Z,31.67
2019-05-29T09:29:01.733Z,31.67
2019-05-29T09:31:52.604Z,34.86
2019-05-29T09:34:43.159Z,36.88
2019-05-29T09:37:34.010Z,41.95
2019-05-29T09:40:25.036Z,39.11
2019-05-29T09:43:16.942Z,40.04
2019-05-29T09:46:08.577Z,40.50
2019-05-29T09:49:01.644Z,39.65
2019-05-29T09:51:52.650Z,40.40
2019-05-29T09:54:44.369Z,42.51
2019-05-29T09:57:35.107Z,40.50
2019-05-29T10:00:26.242Z,39.67
2019-05-29T10:03:16.874Z,42.68
2019-05-29T10:06:09.535Z,43.14
2019-05-29T10:09:01.652Z,41.90
2019-05-29T10:11:58.507Z,41.53
2019-05-29T10:14:46.846Z,41.31
2019-05-29T10:17:37.674Z,40.30
2019-05-29T10:20:28.648Z,40.43
2019-05-29T10:23:20.314Z,42.30
2019-05-29T10:26:10.884Z,39.92
2019-05-29T10:29:08.253Z,34.42
2019-05-29T10:31:54.424Z,32.15
2019-05-29T10:34:46.308Z,32.07
2019-05-29T10:37:37.444Z,33.58
2019-05-29T10:40:28.497Z,32.30
2019-05-29T10:43:33.191Z,31.25
2019-05-29T10:46:12.168Z,31.01
2019-05-29T10:49:04.726Z,31.08
2019-05-29T10:52:12.893Z,31.60
2019-05-29T10:54:48.267Z,31.03
2019-05-29T10:57:39.297Z,36.35
2019-05-29T11:00:30.164Z,37.35
2019-05-29T11:03:20.983Z,37.66
2019-05-29T11:06:11.704Z,37.34
2019-05-29T11:09:02.289Z,38.55
2019-05-29T11:11:55.152Z,37.82
2019-05-29T11:14:46.476Z,38.82
2019-05-29T11:17:37.108Z,39.42
2019-05-29T11:20:27.984Z,40.13
2019-05-29T11:23:18.750Z,41.12
2019-05-29T11:26:09.573Z,40.30
2019-05-29T11:29:00.303Z,40.24
2019-05-29T11:31:51.241Z,40.06
2019-05-29T11:34:43.795Z,41.45
2019-05-29T11:37:34.645Z,40.52
2019-05-29T11:40:25.527Z,40.50
2019-05-29T11:43:16.344Z,41.71
2019-05-29T11:46:07.453Z,40.64
2019-05-29T11:48:59.390Z,41.30
2019-05-29T11:51:51.594Z,36.89
2019-05-29T11:54:42.548Z,35.96
2019-05-29T11:57:33.649Z,35.74
2019-05-29T12:00:24.745Z,33.01
2019-05-29T12:03:15.604Z,31.48
2019-05-29T12:06:06.697Z,31.58
2019-05-29T12:08:58.030Z,30.43
2019-05-29T12:11:48.732Z,31.80
2019-05-29T12:14:59.227Z,32.00
2019-05-29T12:17:31.739Z,30.93
2019-05-29T12:20:28.081Z,30.47
2019-05-29T12:23:25.983Z,31.17
2019-05-29T12:26:21.454Z,30.67
2019-05-29T12:29:08.385Z,30.12
2019-05-29T12:31:52.970Z,30.26
2019-05-29T12:34:53.142Z,29.97
2019-05-29T12:37:36.087Z,30.09
2019-05-29T12:40:27.042Z,30.64
2019-05-29T12:43:27.287Z,30.54
2019-05-29T12:46:10.429Z,29.87
2019-05-29T12:49:01.729Z,29.52
2019-05-29T12:51:53.502Z,30.60
2019-05-29T12:54:44.390Z,29.87
2019-05-29T12:57:35.462Z,29.62
2019-05-29T13:00:26.026Z,29.41
2019-05-29T13:03:16.817Z,29.23
2019-05-29T13:06:07.583Z,30.12
2019-05-29T13:08:58.552Z,29.43
2019-05-29T13:11:49.436Z,30.03
2019-05-29T13:14:40.075Z,28.55
2019-05-29T13:17:30.741Z,31.07
2019-05-29T13:20:22.388Z,29.60
2019-05-29T13:23:13.485Z,30.04
2019-05-29T13:26:05.632Z,31.20
2019-05-29T13:28:57.548Z,29.28
2019-05-29T13:31:48.464Z,30.98
2019-05-29T13:34:39.298Z,30.10
2019-05-29T13:37:30.154Z,31.45
2019-05-29T13:40:20.700Z,29.85
2019-05-29T13:43:15.484Z,30.58
2019-05-29T13:46:04.630Z,31.21
2019-05-29T13:48:56.731Z,30.25
2019-05-29T13:51:47.576Z,31.66
2019-05-29T13:54:38.262Z,33.63
2019-05-29T13:57:29.062Z,34.86
2019-05-29T14:00:33.349Z,34.60
2019-05-29T14:03:11.837Z,34.71
2019-05-29T14:06:03.113Z,34.72
2019-05-29T14:08:54.560Z,34.31
2019-05-29T14:11:45.463Z,35.69
2019-05-29T14:14:36.215Z,34.81
2019-05-29T14:17:27.525Z,36.48
2019-05-29T14:20:18.234Z,37.48
2019-05-29T14:23:09.634Z,36.16
2019-05-29T14:26:00.691Z,37.16
2019-05-29T14:28:51.754Z,36.29
2019-05-29T14:37:34.868Z,35.96
2019-05-29T14:40:25.385Z,36.28
2019-05-29T14:43:16.324Z,37.33
2019-05-29T14:46:08.001Z,37.64
2019-05-29T14:48:59.095Z,38.22
2019-05-29T14:51:49.651Z,37.90
2019-05-29T14:54:42.153Z,38.53
2019-05-29T14:57:32.746Z,38.09
2019-05-29T15:00:25.722Z,37.55
2019-05-29T15:03:16.082Z,37.76
2019-05-29T15:06:07.604Z,38.83
2019-05-29T15:08:58.662Z,38.33
2019-05-29T15:11:49.791Z,38.63
2019-05-29T15:14:40.479Z,38.21
2019-05-29T15:17:31.148Z,38.49
2019-05-29T15:20:21.965Z,37.95
2019-05-29T15:23:13.501Z,36.51
2019-05-29T15:26:04.057Z,37.85
2019-05-29T15:28:54.731Z,38.21
2019-05-29T15:31:45.562Z,35.68
2019-05-29T15:34:36.484Z,35.21
2019-05-29T15:37:27.226Z,35.06
2019-05-29T15:40:18.181Z,34.87
2019-05-29T15:43:08.901Z,34.68
2019-05-29T15:45:59.564Z,34.62
2019-05-29T15:48:50.082Z,35.39
2019-05-29T15:51:41.036Z,34.47
2019-05-29T15:54:31.959Z,34.21
2019-05-29T15:57:23.062Z,35.33
2019-05-29T16:00:15.470Z,36.14
2019-05-29T16:03:07.624Z,36.46
2019-05-29T16:05:58.747Z,35.22
2019-05-29T16:08:49.668Z,35.79
2019-05-29T16:11:41.734Z,35.56
2019-05-29T16:14:32.595Z,36.19
2019-05-29T16:17:24.570Z,36.50
2019-05-29T16:20:16.876Z,37.44
2019-05-29T16:23:07.447Z,37.92
2019-05-29T16:25:58.343Z,38.35
2019-05-29T16:28:49.208Z,38.37
2019-05-29T16:31:40.061Z,38.45
2019-05-29T16:34:30.827Z,38.42
2019-05-29T16:37:22.199Z,37.92
2019-05-29T16:40:14.178Z,38.73
2019-05-29T16:43:05.305Z,38.78
2019-05-29T16:45:56.144Z,40.35
2019-05-29T16:48:47.054Z,41.63
2019-05-29T16:51:37.615Z,42.61
2019-05-29T16:54:28.588Z,43.86
2019-05-29T16:57:19.425Z,44.80
2019-05-29T17:00:10.316Z,47.45
2019-05-29T17:03:00.995Z,50.31
2019-05-29T17:05:51.754Z,52.18
2019-05-29T17:08:42.716Z,52.78
2019-05-29T17:11:33.276Z,53.97
2019-05-29T17:14:25.088Z,54.48
2019-05-29T17:17:16.875Z,52.63
2019-05-29T17:20:07.381Z,49.66
2019-05-29T17:22:59.009Z,49.96
2019-05-29T17:25:49.599Z,49.90
2019-05-29T17:28:40.498Z,49.92
2019-05-29T17:31:31.341Z,50.67
2019-05-29T17:34:23.217Z,50.88
2019-05-29T17:37:15.096Z,52.06
2019-05-29T17:40:06.393Z,52.42
2019-05-29T17:42:56.977Z,52.54
2019-05-29T17:45:48.140Z,53.27
2019-05-29T17:48:38.119Z,53.46
2019-05-29T17:51:28.766Z,53.76
2019-05-29T17:54:19.757Z,53.97
2019-05-29T17:57:10.485Z,54.23
2019-05-29T18:00:04.843Z,53.89
2019-05-29T18:02:56.720Z,54.33
2019-05-29T18:05:47.028Z,51.24
2019-05-29T18:08:37.967Z,51.98
2019-05-29T18:11:30.123Z,52.82
2019-05-29T18:14:21.190Z,52.94
2019-05-29T18:17:11.936Z,53.94
2019-05-29T18:20:02.104Z,54.40
2019-05-29T18:22:52.884Z,54.46
2019-05-29T18:25:43.188Z,54.79
2019-05-29T18:28:34.371Z,54.99
2019-05-29T18:48:57.004Z,64.31
2019-05-29T18:51:47.015Z,64.70
2019-05-29T18:54:36.901Z,65.42
2019-05-29T18:57:27.394Z,66.59
2019-05-29T19:00:18.457Z,67.41
2019-05-29T19:03:08.293Z,69.50
2019-05-29T19:06:00.196Z,69.89
2019-05-29T19:08:50.188Z,69.85
2019-05-29T19:11:39.978Z,70.06
2019-05-29T19:14:30.208Z,71.59
2019-05-29T19:17:21.902Z,72.20
2019-05-29T19:20:12.151Z,72.07
2019-05-29T19:23:02.558Z,71.77
2019-05-29T19:25:52.409Z,71.71
2019-05-29T19:28:42.706Z,71.65
2019-05-29T19:31:33.361Z,71.13
2019-05-29T19:34:23.851Z,71.11
2019-05-29T19:37:14.317Z,72.36
2019-05-29T19:40:04.834Z,72.93
2019-05-29T19:42:54.963Z,73.73
2019-05-29T19:45:45.257Z,74.78
2019-05-29T19:48:35.664Z,73.23
2019-05-29T19:51:27.287Z,74.84
2019-05-29T19:54:17.800Z,73.11
2019-05-29T19:57:08.036Z,71.02
2019-05-29T19:59:58.347Z,67.74
2019-05-29T20:02:48.572Z,67.41
2019-05-29T20:05:38.748Z,65.53
2019-05-29T20:08:32.662Z,64.01
2019-05-29T20:11:20.915Z,64.07
2019-05-29T20:14:11.004Z,61.99
2019-05-29T20:17:01.067Z,59.72
2019-05-29T20:19:51.596Z,58.96
2019-05-29T20:22:41.885Z,58.27
2019-05-29T20:25:32.800Z,62.47
2019-05-29T20:28:23.282Z,59.83
2019-05-29T20:31:13.403Z,54.84
2019-05-29T20:34:03.275Z,55.79
2019-05-29T20:36:53.680Z,56.51
2019-05-29T20:39:43.983Z,52.19
2019-05-29T20:42:34.317Z,49.53
2019-05-29T20:45:24.433Z,50.94
2019-05-29T20:48:15.776Z,51.27
2019-05-29T20:51:05.891Z,52.04
2019-05-29T20:53:55.975Z,52.86
2019-05-29T20:56:46.142Z,54.36
2019-05-29T20:59:36.251Z,55.22
2019-05-29T21:02:26.484Z,55.78
2019-05-29T21:05:17.068Z,55.87
2019-05-29T21:08:06.998Z,56.09
2019-05-29T21:10:57.335Z,56.86
2019-05-29T21:13:47.369Z,57.03
2019-05-29T21:16:37.910Z,57.21
2019-05-29T21:19:28.303Z,57.32
2019-05-29T21:22:18.416Z,56.59
2019-05-29T21:25:11.986Z,56.17
2019-05-29T21:28:00.374Z,56.39
2019-05-29T21:30:50.357Z,56.83
2019-05-29T21:33:44.089Z,56.71
2019-05-29T21:36:32.394Z,56.07
2019-05-29T21:39:22.711Z,56.84
2019-05-29T21:42:12.936Z,59.10
2019-05-29T21:45:03.063Z,58.53
2019-05-29T21:47:53.456Z,58.02
2019-05-29T21:50:43.980Z,58.38
2019-05-29T21:53:34.226Z,59.47
2019-05-29T21:56:25.602Z,61.11
2019-05-29T21:59:15.511Z,61.77
2019-05-29T22:02:05.830Z,61.27
2019-05-29T22:04:55.843Z,60.79
2019-05-29T22:07:46.927Z,59.19
2019-05-29T22:10:37.112Z,57.60
2019-05-29T22:13:27.437Z,57.26
2019-05-29T22:16:17.704Z,59.10
2019-05-29T22:19:08.131Z,60.24
2019-05-29T22:21:59.180Z,55.88
2019-05-29T22:24:51.001Z,56.25
2019-05-29T22:27:41.259Z,57.47
2019-05-29T22:30:31.671Z,58.25
2019-05-29T22:33:21.849Z,57.03
2019-05-29T22:36:12.205Z,54.82
2019-05-29T22:39:02.175Z,53.46
2019-05-29T22:41:54.003Z,54.38
2019-05-29T22:44:44.028Z,54.28
2019-05-29T22:47:34.306Z,57.85
2019-05-29T22:50:24.304Z,59.94
2019-05-29T22:53:14.708Z,58.03
2019-05-29T22:56:05.234Z,58.34
2019-05-29T22:58:56.053Z,57.80
2019-05-29T23:01:47.305Z,56.32
2019-05-29T23:04:37.439Z,57.87
2019-05-29T23:07:27.599Z,58.46
2019-05-29T23:10:17.624Z,59.92
2019-05-29T23:13:07.914Z,60.54
2019-05-29T23:15:58.733Z,60.77
2019-05-29T23:18:49.278Z,57.81
2019-05-29T23:21:39.561Z,59.67
2019-05-29T23:24:30.066Z,58.92
2019-05-29T23:27:20.414Z,55.92
2019-05-29T23:30:10.799Z,56.20
2019-05-29T23:33:01.244Z,56.12
2019-05-29T23:35:52.923Z,55.18
2019-05-29T23:38:43.316Z,55.14
2019-05-29T23:41:33.462Z,55.54
2019-05-29T23:44:23.860Z,55.44
2019-05-29T23:47:14.112Z,55.81
2019-05-29T23:50:04.620Z,54.92
2019-05-29T23:52:55.582Z,54.09
2019-05-29T23:55:46.184Z,52.99
2019-05-29T23:58:36.296Z,53.16
